createdAt,value
2018-01-21T00:01:32.438Z,3.80
2018-01-21T00:04:01.075Z,4.17
2018-01-21T00:06:28.826Z,4.16
2018-01-21T00:08:56.969Z,4.23
2018-01-21T00:11:26.637Z,4.21
2018-01-21T00:13:55.205Z,3.88
2018-01-21T00:16:26.161Z,4.06
2018-01-21T00:18:56.224Z,4.01
2018-01-21T00:21:25.760Z,3.89
2018-01-21T00:23:54.797Z,3.96
2018-01-21T00:26:26.371Z,3.84
2018-01-21T00:28:55.474Z,3.84
2018-01-21T00:31:23.917Z,4.05
2018-01-21T00:33:55.866Z,3.55
2018-01-21T00:36:26.168Z,3.98
2018-01-21T00:38:56.914Z,3.93
2018-01-21T00:41:27.229Z,4.22
2018-01-21T00:43:58.971Z,4.10
2018-01-21T00:46:30.654Z,3.76
2018-01-21T00:49:03.266Z,4.00
2018-01-21T00:51:31.283Z,4.28
2018-01-21T00:53:58.906Z,4.09
2018-01-21T00:56:26.546Z,4.32
2018-01-21T00:58:54.276Z,3.77
2018-01-21T01:01:22.937Z,4.35
2018-01-21T01:03:50.967Z,4.25
2018-01-21T01:06:20.194Z,4.00
2018-01-21T01:09:03.020Z,3.95
2018-01-21T01:11:33.388Z,4.16
2018-01-21T01:14:02.215Z,4.40
2018-01-21T01:16:31.456Z,4.27
2018-01-21T01:19:01.580Z,3.73
2018-01-21T01:21:31.612Z,3.84
2018-01-21T01:24:03.390Z,4.43
2018-01-21T01:26:33.164Z,4.50
2018-01-21T01:29:02.338Z,4.16
2018-01-21T01:31:31.353Z,3.99
2018-01-21T01:34:04.902Z,3.76
2018-01-21T01:36:36.415Z,3.73
2018-01-21T01:39:05.526Z,3.82
2018-01-21T01:41:34.871Z,3.81
2018-01-21T01:44:03.482Z,3.82
2018-01-21T01:46:33.556Z,3.64
2018-01-21T01:49:03.550Z,3.72
2018-01-21T01:51:35.699Z,3.76
2018-01-21T01:54:04.404Z,3.46
2018-01-21T01:56:45.089Z,3.80
2018-01-21T01:59:13.354Z,3.66
2018-01-21T02:01:43.564Z,3.41
2018-01-21T02:04:13.451Z,3.46
2018-01-21T02:06:45.651Z,3.38
2018-01-21T02:09:19.035Z,3.29
2018-01-21T02:11:47.466Z,3.39
2018-01-21T02:14:18.840Z,3.50
2018-01-21T02:19:24.154Z,3.29
2018-01-21T02:21:53.248Z,2.99
2018-01-21T02:24:22.750Z,3.34
2018-01-21T02:26:55.653Z,3.47
2018-01-21T02:29:26.359Z,3.60
2018-01-21T02:31:56.242Z,3.44
2018-01-21T02:34:25.726Z,3.45
2018-01-21T02:36:55.051Z,3.04
2018-01-21T02:39:25.600Z,3.32
2018-01-21T02:41:56.852Z,3.10
2018-01-21T02:44:25.624Z,3.26
2018-01-21T02:46:55.816Z,3.32
2018-01-21T02:49:24.970Z,3.22
2018-01-21T02:51:53.790Z,2.98
2018-01-21T02:54:26.640Z,2.98
2018-01-21T02:56:56.356Z,3.03
2018-01-21T02:59:27.511Z,2.47
2018-01-21T03:01:56.924Z,2.47
2018-01-21T03:04:27.212Z,2.43
2018-01-21T03:06:56.350Z,3.11
2018-01-21T03:09:25.749Z,3.06
2018-01-21T03:11:56.448Z,2.81
2018-01-21T03:14:25.933Z,2.25
2018-01-21T03:16:54.772Z,2.45
2018-01-21T03:19:24.708Z,2.82
2018-01-21T03:21:53.181Z,2.75
2018-01-21T03:24:23.735Z,2.12
2018-01-21T03:26:53.133Z,2.95
2018-01-21T03:29:20.886Z,2.65
2018-01-21T03:31:48.680Z,2.35
2018-01-21T03:34:16.337Z,1.84
2018-01-21T03:36:44.832Z,2.43
2018-01-21T03:39:12.605Z,2.02
2018-01-21T03:41:40.293Z,1.48
2018-01-21T03:44:07.998Z,1.73
2018-01-21T03:46:35.792Z,2.13
2018-01-21T03:49:03.409Z,1.98
2018-01-21T03:51:31.046Z,1.24
2018-01-21T03:53:58.759Z,1.68
2018-01-21T03:56:27.167Z,1.27
2018-01-21T03:58:54.785Z,1.33
2018-01-21T04:01:22.586Z,1.62
2018-01-21T04:03:50.195Z,1.50
2018-01-21T04:06:18.070Z,1.13
2018-01-21T04:08:45.824Z,1.17
2018-01-21T04:11:13.397Z,0.86
2018-01-21T04:13:41.933Z,0.84
2018-01-21T04:16:09.672Z,0.99
2018-01-21T04:18:37.281Z,0.71
2018-01-21T04:21:05.053Z,1.13
2018-01-21T04:23:33.125Z,1.10
2018-01-21T04:26:00.821Z,1.12
2018-01-21T04:28:28.420Z,1.15
2018-01-21T04:30:56.138Z,1.28
2018-01-21T04:33:24.128Z,1.07
2018-01-21T04:35:52.140Z,1.52
2018-01-21T04:38:23.794Z,1.66
2018-01-21T04:40:51.636Z,1.06
2018-01-21T04:43:19.414Z,1.78
2018-01-21T04:45:47.648Z,1.84
2018-01-21T04:48:15.287Z,1.90
2018-01-21T04:50:44.100Z,2.26
2018-01-21T04:53:16.743Z,2.38
2018-01-21T04:55:50.508Z,2.50
2018-01-21T04:58:18.124Z,2.41
2018-01-21T05:00:48.869Z,2.48
2018-01-21T05:03:21.893Z,2.45
2018-01-21T05:05:49.797Z,2.63
2018-01-21T05:08:17.456Z,2.66
2018-01-21T05:10:45.058Z,2.82
2018-01-21T05:13:12.787Z,2.99
2018-01-21T05:15:40.713Z,2.93
2018-01-21T05:18:08.393Z,2.91
2018-01-21T05:20:36.172Z,2.68
2018-01-21T05:23:03.808Z,3.03
2018-01-21T05:25:31.405Z,3.15
2018-01-21T05:27:59.156Z,3.62
2018-01-21T05:30:26.920Z,3.62
2018-01-21T05:32:56.949Z,3.41
2018-01-21T05:35:24.606Z,3.11
2018-01-21T05:37:52.400Z,3.36
2018-01-21T05:40:20.054Z,3.40
2018-01-21T05:42:47.758Z,3.23
2018-01-21T05:45:15.476Z,3.25
2018-01-21T05:47:43.074Z,3.33
2018-01-21T05:50:10.706Z,3.47
2018-01-21T05:52:38.414Z,3.24
2018-01-21T05:55:06.652Z,2.84
2018-01-21T05:57:34.590Z,3.16
2018-01-21T06:00:04.382Z,3.10
2018-01-21T06:02:32.493Z,2.98
2018-01-21T06:05:00.106Z,2.84
2018-01-21T06:07:27.825Z,2.61
2018-01-21T06:09:55.456Z,2.94
2018-01-21T06:12:23.052Z,2.45
2018-01-21T06:14:50.821Z,2.53
2018-01-21T06:17:28.533Z,2.36
2018-01-21T06:19:56.329Z,2.21
2018-01-21T06:22:24.233Z,2.24
2018-01-21T06:24:52.049Z,1.73
2018-01-21T06:27:19.852Z,2.55
2018-01-21T06:29:47.586Z,2.32
2018-01-21T06:32:15.387Z,2.06
2018-01-21T06:34:43.218Z,2.24
2018-01-21T06:37:10.911Z,2.64
2018-01-21T06:39:38.736Z,2.72
2018-01-21T06:42:06.388Z,2.09
2018-01-21T06:44:33.992Z,2.51
2018-01-21T06:47:02.247Z,2.79
2018-01-21T06:49:30.740Z,3.00
2018-01-21T06:51:58.421Z,2.69
2018-01-21T06:54:26.172Z,2.47
2018-01-21T06:56:53.820Z,2.78
2018-01-21T06:59:21.505Z,2.64
2018-01-21T07:01:49.383Z,2.20
2018-01-21T07:04:16.997Z,3.03
2018-01-21T07:06:44.635Z,3.18
2018-01-21T07:09:12.701Z,2.87
2018-01-21T07:11:40.672Z,3.18
2018-01-21T07:14:08.442Z,2.89
2018-01-21T07:16:36.257Z,2.97
2018-01-21T07:19:03.940Z,3.19
2018-01-21T07:21:31.713Z,3.19
2018-01-21T07:23:59.536Z,3.16
2018-01-21T07:26:27.449Z,3.37
2018-01-21T07:28:55.628Z,3.46
2018-01-21T07:31:24.195Z,3.73
2018-01-21T07:33:51.815Z,3.76
2018-01-21T07:36:19.568Z,3.51
2018-01-21T07:38:47.286Z,3.67
2018-01-21T07:41:15.581Z,3.84
2018-01-21T07:43:43.337Z,3.52
2018-01-21T07:46:11.129Z,3.72
2018-01-21T07:48:40.404Z,3.93
2018-01-21T07:51:08.048Z,4.09
2018-01-21T07:53:35.767Z,3.89
2018-01-21T07:56:03.571Z,3.71
2018-01-21T07:58:32.370Z,3.58
2018-01-21T08:01:00.292Z,3.71
2018-01-21T08:03:28.860Z,3.75
2018-01-21T08:05:56.704Z,3.34
2018-01-21T08:08:24.580Z,3.23
2018-01-21T08:10:52.417Z,3.53
2018-01-21T08:14:08.885Z,3.21
2018-01-21T08:16:36.661Z,3.14
2018-01-21T08:19:04.376Z,3.18
2018-01-21T08:21:32.008Z,2.99
2018-01-21T08:23:59.827Z,3.45
2018-01-21T08:26:28.359Z,3.20
2018-01-21T08:28:56.318Z,2.70
2018-01-21T08:31:24.104Z,3.26
2018-01-21T08:33:58.237Z,3.31
2018-01-21T08:36:31.707Z,3.02
2018-01-21T13:11:37.412Z,4.27
2018-01-21T13:16:45.812Z,3.88
2018-01-21T13:19:16.836Z,4.17
2018-01-21T13:22:01.953Z,4.06
2018-01-21T13:24:45.911Z,4.18
2018-01-21T13:27:21.040Z,3.76
2018-01-21T13:29:56.928Z,3.85
2018-01-21T13:35:14.858Z,3.62
2018-01-21T13:37:42.619Z,4.01
2018-01-21T13:44:03.571Z,4.06
2018-01-21T13:46:31.324Z,3.75
2018-01-21T13:48:58.892Z,3.90
2018-01-21T13:51:26.755Z,4.05
2018-01-21T13:53:54.561Z,3.86
2018-01-21T13:56:22.355Z,4.07
2018-01-21T13:58:50.500Z,3.99
2018-01-21T14:01:23.422Z,3.98
2018-01-21T14:03:54.289Z,4.06
2018-01-21T14:06:22.970Z,4.15
2018-01-21T14:08:53.484Z,4.09
2018-01-21T14:11:29.163Z,3.81
2018-01-21T14:14:06.841Z,3.99
2018-01-21T14:16:40.797Z,4.28
2018-01-21T14:19:11.014Z,4.28
2018-01-21T14:21:41.507Z,4.23
2018-01-21T14:24:13.318Z,3.99
2018-01-21T14:26:44.320Z,4.18
2018-01-21T14:29:15.024Z,4.26
2018-01-21T14:31:46.719Z,4.55
2018-01-21T14:36:52.940Z,4.47
2018-01-21T14:39:24.914Z,4.74
2018-01-21T14:41:56.138Z,4.54
2018-01-21T14:44:30.752Z,4.39
2018-01-21T14:47:06.435Z,4.13
2018-01-21T14:49:37.181Z,4.08
2018-01-21T14:52:08.946Z,4.15
2018-01-21T14:54:39.836Z,3.88
2018-01-21T14:57:11.225Z,3.79
2018-01-21T14:59:42.703Z,3.84
2018-01-21T15:02:14.553Z,3.99
2018-01-21T15:04:45.550Z,3.93
2018-01-21T15:07:15.272Z,3.61
2018-01-21T15:09:48.689Z,3.30
2018-01-21T15:12:20.033Z,3.61
2018-01-21T15:17:26.818Z,3.70
2018-01-21T15:19:57.390Z,3.76
2018-01-21T15:22:36.047Z,3.37
2018-01-21T15:25:04.923Z,3.39
2018-01-21T15:27:35.591Z,3.27
2018-01-21T15:30:12.787Z,3.27
2018-01-21T15:32:43.928Z,3.34
2018-01-21T15:35:12.499Z,3.26
2018-01-21T15:37:40.953Z,3.43
2018-01-21T15:40:09.176Z,3.32
2018-01-21T15:42:37.741Z,3.20
2018-01-21T15:45:05.718Z,3.13
2018-01-21T15:47:33.920Z,3.46
2018-01-21T15:50:15.310Z,3.28
2018-01-21T15:52:50.224Z,3.04
2018-01-21T15:55:19.517Z,3.12
2018-01-21T15:57:52.721Z,3.11
2018-01-21T16:00:21.421Z,3.03
2018-01-21T16:02:50.289Z,3.11
2018-01-21T16:05:18.082Z,3.35
2018-01-21T16:07:48.913Z,3.42
2018-01-21T16:10:16.763Z,3.36
2018-01-21T16:12:45.102Z,3.14
2018-01-21T16:15:13.692Z,3.05
2018-01-21T16:17:41.286Z,3.17
2018-01-21T16:20:08.917Z,3.11
2018-01-21T16:22:37.180Z,2.93
2018-01-21T16:25:04.828Z,3.23
2018-01-21T16:27:33.448Z,3.24
2018-01-21T16:30:02.349Z,3.36
2018-01-21T16:32:31.313Z,3.09
2018-01-21T16:35:00.316Z,3.03
2018-01-21T16:37:42.411Z,2.95
2018-01-21T16:40:10.680Z,2.85
2018-01-21T16:42:39.431Z,2.84
2018-01-21T16:45:07.450Z,3.04
2018-01-21T16:47:39.082Z,3.05
2018-01-21T16:50:08.739Z,3.19
2018-01-21T16:52:38.346Z,3.17
2018-01-21T16:55:06.404Z,3.09
2018-01-21T16:57:35.158Z,3.09
2018-01-21T17:00:10.500Z,3.36
2018-01-21T17:02:38.920Z,3.03
2018-01-21T17:05:07.825Z,3.08
2018-01-21T17:07:38.062Z,3.01
2018-01-21T17:10:12.125Z,3.04
2018-01-21T17:12:40.214Z,2.88
2018-01-21T17:15:08.393Z,3.05
2018-01-21T17:17:37.147Z,3.03
2018-01-21T17:20:05.718Z,3.00
2018-01-21T17:22:33.648Z,2.95
2018-01-21T17:25:02.253Z,3.14
2018-01-21T17:27:30.079Z,3.14
2018-01-21T17:29:58.293Z,3.12
2018-01-21T17:32:27.149Z,3.14
2018-01-21T17:34:54.995Z,3.15
2018-01-21T17:37:22.691Z,3.15
2018-01-21T17:39:51.141Z,3.03
2018-01-21T17:42:38.286Z,3.12
2018-01-21T17:45:25.423Z,3.28
2018-01-21T17:50:54.516Z,3.43
2018-01-21T17:56:21.923Z,3.26
2018-01-21T17:58:51.568Z,3.48
2018-01-21T18:01:20.478Z,3.30
2018-01-21T18:03:49.251Z,3.26
2018-01-21T18:06:19.420Z,3.40
2018-01-21T18:08:47.717Z,3.20
2018-01-21T18:11:15.491Z,3.21
2018-01-21T18:13:44.928Z,3.19
2018-01-21T18:16:13.728Z,3.18
2018-01-21T18:18:41.545Z,3.09
2018-01-21T18:21:17.607Z,3.44
2018-01-21T18:23:48.468Z,3.26
2018-01-21T20:08:06.342Z,2.87
2018-01-21T20:10:35.736Z,2.67
2018-01-21T20:13:04.811Z,3.24
2018-01-21T20:18:43.097Z,3.17
2018-01-21T20:21:11.904Z,3.05
2018-01-21T20:23:40.788Z,3.08
2018-01-21T20:26:08.491Z,3.18
2018-01-21T20:28:36.445Z,3.35
2018-01-21T20:31:04.174Z,3.60
2018-01-21T20:33:31.734Z,3.18
2018-01-21T20:35:59.398Z,3.55
2018-01-21T20:38:27.275Z,3.96
2018-01-21T20:40:55.913Z,3.70
2018-01-21T20:43:23.534Z,3.46
2018-01-21T20:45:51.337Z,3.94
2018-01-21T20:48:19.002Z,4.01
2018-01-21T20:50:46.702Z,4.11
2018-01-21T20:53:21.148Z,4.30
2018-01-21T20:55:50.511Z,4.37
2018-01-21T20:58:18.290Z,4.44
2018-01-21T21:03:45.253Z,4.64
